sensor_id;sensor_type;location;lat;lon;timestamp;pressure;altitude;pressure_sealevel;temperature;humidity
3132;BME280;62090;52.330;9.104;2023-04-28T00:02:05;101067.84;;;8.71;67.86
3132;BME280;62090;52.330;9.104;2023-04-28T00:04:37;101099.13;;;8.93;69.05
3132;BME280;62090;52.330;9.104;2023-04-28T00:07:07;101098.19;;;8.90;69.23
3132;BME280;62090;52.330;9.104;2023-04-28T00:09:37;101077.47;;;8.80;69.02
3132;BME280;62090;52.330;9.104;2023-04-28T00:12:07;101068.53;;;8.67;69.98
3132;BME280;62090;52.330;9.104;2023-04-28T00:14:37;101064.53;;;8.74;68.89
3132;BME280;62090;52.330;9.104;2023-04-28T00:17:07;101033.16;;;8.50;68.61
3132;BME280;62090;52.330;9.104;2023-04-28T00:19:39;100997.16;;;8.37;68.05
3132;BME280;62090;52.330;9.104;2023-04-28T00:22:09;101077.78;;;8.87;68.28
3132;BME280;62090;52.330;9.104;2023-04-28T00:24:39;101040.88;;;8.75;67.66
3132;BME280;62090;52.330;9.104;2023-04-28T00:27:09;100980.63;;;8.48;67.40
3132;BME280;62090;52.330;9.104;2023-04-28T00:29:39;101057.19;;;9.04;67.01
3132;BME280;62090;52.330;9.104;2023-04-28T00:32:09;101034.31;;;9.04;66.44
3132;BME280;62090;52.330;9.104;2023-04-28T00:34:42;101033.84;;;9.15;66.25
3132;BME280;62090;52.330;9.104;2023-04-28T00:37:11;101027.22;;;9.20;65.54
3132;BME280;62090;52.330;9.104;2023-04-28T00:39:41;101036.50;;;9.44;65.05
3132;BME280;62090;52.330;9.104;2023-04-28T00:42:13;100936.97;;;8.82;64.07
3132;BME280;62090;52.330;9.104;2023-04-28T00:44:43;100982.69;;;9.06;64.04
3132;BME280;62090;52.330;9.104;2023-04-28T00:47:15;101019.38;;;9.38;63.60
3132;BME280;62090;52.330;9.104;2023-04-28T00:49:48;100972.28;;;8.99;63.75
3132;BME280;62090;52.330;9.104;2023-04-28T00:52:18;100968.22;;;9.04;63.40
3132;BME280;62090;52.330;9.104;2023-04-28T00:54:49;100973.66;;;9.14;63.48
3132;BME280;62090;52.330;9.104;2023-04-28T00:57:18;101015.75;;;9.31;63.87
3132;BME280;62090;52.330;9.104;2023-04-28T00:59:48;101027.00;;;9.38;63.55
3132;BME280;62090;52.330;9.104;2023-04-28T01:02:19;101017.59;;;9.36;63.90
3132;BME280;62090;52.330;9.104;2023-04-28T01:04:52;101008.84;;;9.27;64.24
3132;BME280;62090;52.330;9.104;2023-04-28T01:07:22;101001.16;;;9.26;64.12
3132;BME280;62090;52.330;9.104;2023-04-28T01:09:52;100957.97;;;9.02;64.04
3132;BME280;62090;52.330;9.104;2023-04-28T01:12:26;101011.00;;;9.41;63.51
3132;BME280;62090;52.330;9.104;2023-04-28T01:14:57;101004.16;;;9.40;62.84
3132;BME280;62090;52.330;9.104;2023-04-28T01:17:29;100976.13;;;9.13;62.35
3132;BME280;62090;52.330;9.104;2023-04-28T01:20:03;100999.03;;;9.38;61.85
3132;BME280;62090;52.330;9.104;2023-04-28T01:22:33;100939.16;;;9.22;61.74
3132;BME280;62090;52.330;9.104;2023-04-28T01:25:07;100946.19;;;9.29;60.22
3132;BME280;62090;52.330;9.104;2023-04-28T01:27:36;100987.97;;;9.63;60.60
3132;BME280;62090;52.330;9.104;2023-04-28T01:30:08;100990.75;;;9.70;59.91
3132;BME280;62090;52.330;9.104;2023-04-28T01:32:38;100950.53;;;9.59;59.19
3132;BME280;62090;52.330;9.104;2023-04-28T01:35:08;100972.75;;;9.64;59.28
3132;BME280;62090;52.330;9.104;2023-04-28T01:37:38;100981.72;;;9.80;59.11
3132;BME280;62090;52.330;9.104;2023-04-28T01:40:11;100976.84;;;9.86;58.88
3132;BME280;62090;52.330;9.104;2023-04-28T01:42:41;100971.34;;;9.74;59.19
3132;BME280;62090;52.330;9.104;2023-04-28T01:45:11;100958.00;;;9.81;59.03
3132;BME280;62090;52.330;9.104;2023-04-28T01:47:41;100959.06;;;9.88;58.45
3132;BME280;62090;52.330;9.104;2023-04-28T01:50:11;100949.19;;;9.70;58.68
3132;BME280;62090;52.330;9.104;2023-04-28T01:52:41;100965.03;;;9.88;58.95
3132;BME280;62090;52.330;9.104;2023-04-28T01:55:14;100890.78;;;9.46;59.33
3132;BME280;62090;52.330;9.104;2023-04-28T01:57:44;100920.09;;;9.62;59.76
3132;BME280;62090;52.330;9.104;2023-04-28T02:00:14;100952.84;;;9.78;60.34
3132;BME280;62090;52.330;9.104;2023-04-28T02:02:48;100891.28;;;9.36;61.18
3132;BME280;62090;52.330;9.104;2023-04-28T02:05:18;100938.41;;;9.52;62.67
3132;BME280;62090;52.330;9.104;2023-04-28T02:07:49;100955.31;;;9.50;65.34
3132;BME280;62090;52.330;9.104;2023-04-28T02:10:22;100948.22;;;9.40;65.76
3132;BME280;62090;52.330;9.104;2023-04-28T02:12:52;100943.50;;;9.25;66.33
3132;BME280;62090;52.330;9.104;2023-04-28T02:15:22;100937.13;;;9.12;66.68
3132;BME280;62090;52.330;9.104;2023-04-28T02:17:52;100908.72;;;8.99;66.94
3132;BME280;62090;52.330;9.104;2023-04-28T02:20:22;100928.00;;;8.92;66.83
3132;BME280;62090;52.330;9.104;2023-04-28T02:22:53;100930.13;;;9.05;66.26
3132;BME280;62090;52.330;9.104;2023-04-28T02:25:25;100900.69;;;8.86;66.21
3132;BME280;62090;52.330;9.104;2023-04-28T02:27:55;100920.81;;;9.06;65.61
3132;BME280;62090;52.330;9.104;2023-04-28T02:30:25;100921.97;;;9.15;65.01
3132;BME280;62090;52.330;9.104;2023-04-28T02:32:55;100918.84;;;9.22;64.29
3132;BME280;62090;52.330;9.104;2023-04-28T02:35:25;100910.38;;;9.23;63.90
3132;BME280;62090;52.330;9.104;2023-04-28T02:37:55;100903.50;;;9.19;63.17
3132;BME280;62090;52.330;9.104;2023-04-28T02:40:27;100905.50;;;9.29;63.03
3132;BME280;62090;52.330;9.104;2023-04-28T02:42:57;100847.75;;;9.00;62.70
3132;BME280;62090;52.330;9.104;2023-04-28T02:45:27;100899.84;;;9.38;62.76
3132;BME280;62090;52.330;9.104;2023-04-28T02:47:57;100875.19;;;9.36;62.56
3132;BME280;62090;52.330;9.104;2023-04-28T02:50:29;100887.72;;;9.58;62.19
3132;BME280;62090;52.330;9.104;2023-04-28T02:52:59;100862.81;;;9.48;61.68
3132;BME280;62090;52.330;9.104;2023-04-28T02:55:31;100881.16;;;9.64;61.53
3132;BME280;62090;52.330;9.104;2023-04-28T02:58:01;100874.13;;;9.56;61.73
3132;BME280;62090;52.330;9.104;2023-04-28T03:00:31;100867.38;;;9.58;61.58
3132;BME280;62090;52.330;9.104;2023-04-28T03:03:01;100880.94;;;9.57;61.65
3132;BME280;62090;52.330;9.104;2023-04-28T03:05:31;100867.06;;;9.47;61.95
3132;BME280;62090;52.330;9.104;2023-04-28T03:08:01;100867.38;;;9.58;61.86
3132;BME280;62090;52.330;9.104;2023-04-28T03:10:33;100869.06;;;9.57;61.73
3132;BME280;62090;52.330;9.104;2023-04-28T03:13:04;100848.31;;;9.44;61.48
3132;BME280;62090;52.330;9.104;2023-04-28T03:15:33;100857.31;;;9.61;61.22
3132;BME280;62090;52.330;9.104;2023-04-28T03:18:03;100833.22;;;9.50;61.10
3132;BME280;62090;52.330;9.104;2023-04-28T03:20:33;100850.31;;;9.54;62.14
3132;BME280;62090;52.330;9.104;2023-04-28T03:23:03;100851.56;;;9.40;63.81
3132;BME280;62090;52.330;9.104;2023-04-28T03:25:36;100833.44;;;9.29;65.33
3132;BME280;62090;52.330;9.104;2023-04-28T03:28:06;100834.19;;;9.00;65.75
3132;BME280;62090;52.330;9.104;2023-04-28T03:30:36;100847.34;;;9.13;65.78
3132;BME280;62090;52.330;9.104;2023-04-28T03:33:06;100849.69;;;9.07;65.67
3132;BME280;62090;52.330;9.104;2023-04-28T03:35:36;100829.25;;;9.04;65.64
3132;BME280;62090;52.330;9.104;2023-04-28T03:38:06;100813.09;;;9.02;65.13
3132;BME280;62090;52.330;9.104;2023-04-28T03:40:38;100828.41;;;9.04;65.53
3132;BME280;62090;52.330;9.104;2023-04-28T03:43:26;100816.19;;;8.94;66.21
3132;BME280;62090;52.330;9.104;2023-04-28T03:46:12;100811.97;;;8.93;66.46
3132;BME280;62090;52.330;9.104;2023-04-28T03:48:45;100828.06;;;8.93;66.76
3132;BME280;62090;52.330;9.104;2023-04-28T03:51:17;100824.59;;;8.91;67.31
3132;BME280;62090;52.330;9.104;2023-04-28T03:53:47;100813.38;;;8.84;67.59
3132;BME280;62090;52.330;9.104;2023-04-28T03:56:20;100822.06;;;8.91;67.24
3132;BME280;62090;52.330;9.104;2023-04-28T03:58:50;100772.09;;;8.65;67.37
3132;BME280;62090;52.330;9.104;2023-04-28T04:01:21;100812.66;;;8.88;67.88
3132;BME280;62090;52.330;9.104;2023-04-28T04:03:52;100819.06;;;9.03;67.52
3132;BME280;62090;52.330;9.104;2023-04-28T04:06:22;100815.72;;;9.04;67.49
3132;BME280;62090;52.330;9.104;2023-04-28T04:08:52;100792.56;;;8.96;67.57
3132;BME280;62090;52.330;9.104;2023-04-28T04:11:25;100805.63;;;9.07;67.35
3132;BME280;62090;52.330;9.104;2023-04-28T04:13:54;100803.22;;;9.11;66.95
3132;BME280;62090;52.330;9.104;2023-04-28T04:16:24;100783.56;;;9.06;66.99
3132;BME280;62090;52.330;9.104;2023-04-28T04:18:56;100741.34;;;8.84;67.23
3132;BME280;62090;52.330;9.104;2023-04-28T04:21:39;100808.69;;;9.23;66.61
3132;BME280;62090;52.330;9.104;2023-04-28T04:24:09;100795.66;;;9.13;67.18
3132;BME280;62090;52.330;9.104;2023-04-28T04:26:42;100801.06;;;9.23;66.84
3132;BME280;62090;52.330;9.104;2023-04-28T04:29:26;100789.78;;;9.15;67.13
3132;BME280;62090;52.330;9.104;2023-04-28T04:31:58;100780.97;;;9.04;67.09
3132;BME280;62090;52.330;9.104;2023-04-28T04:34:28;100796.53;;;9.15;67.36
3132;BME280;62090;52.330;9.104;2023-04-28T04:36:57;100795.84;;;9.19;67.17
3132;BME280;62090;52.330;9.104;2023-04-28T04:39:28;100798.53;;;9.23;67.23
3132;BME280;62090;52.330;9.104;2023-04-28T04:42:00;100796.88;;;9.25;67.06
3132;BME280;62090;52.330;9.104;2023-04-28T04:44:58;100777.59;;;9.05;67.26
3132;BME280;62090;52.330;9.104;2023-04-28T04:47:29;100785.63;;;9.17;67.10
3132;BME280;62090;52.330;9.104;2023-04-28T04:49:59;100785.41;;;9.11;67.46
3132;BME280;62090;52.330;9.104;2023-04-28T04:52:29;100778.00;;;9.17;67.03
3132;BME280;62090;52.330;9.104;2023-04-28T04:54:59;100776.38;;;9.21;66.95
3132;BME280;62090;52.330;9.104;2023-04-28T04:57:32;100790.47;;;9.38;66.64
3132;BME280;62090;52.330;9.104;2023-04-28T05:00:06;100778.56;;;9.36;66.82
3132;BME280;62090;52.330;9.104;2023-04-28T05:02:37;100780.56;;;9.46;66.78
3132;BME280;62090;52.330;9.104;2023-04-28T05:05:08;100755.69;;;9.37;67.19
3132;BME280;62090;52.330;9.104;2023-04-28T05:08:00;100773.72;;;9.45;67.21
3132;BME280;62090;52.330;9.104;2023-04-28T05:10:32;100771.75;;;9.64;67.07
3132;BME280;62090;52.330;9.104;2023-04-28T05:13:05;100766.78;;;9.67;66.93
3132;BME280;62090;52.330;9.104;2023-04-28T05:15:35;100778.75;;;9.71;67.21
3132;BME280;62090;52.330;9.104;2023-04-28T05:18:24;100760.06;;;9.71;67.34
3132;BME280;62090;52.330;9.104;2023-04-28T05:20:54;100726.75;;;9.62;67.57
3132;BME280;62090;52.330;9.104;2023-04-28T05:23:24;100601.06;;;8.94;67.23
3132;BME280;62090;52.330;9.104;2023-04-28T05:25:54;100570.19;;;8.80;67.17
3132;BME280;62090;52.330;9.104;2023-04-28T05:28:26;100740.09;;;9.85;66.95
3132;BME280;62090;52.330;9.104;2023-04-28T05:31:00;100722.19;;;9.82;67.20
3132;BME280;62090;52.330;9.104;2023-04-28T05:33:31;100697.63;;;9.82;66.82
3132;BME280;62090;52.330;9.104;2023-04-28T05:36:01;100755.47;;;10.19;66.63
3132;BME280;62090;52.330;9.104;2023-04-28T05:38:30;100736.78;;;10.19;66.17
3132;BME280;62090;52.330;9.104;2023-04-28T05:41:01;100750.81;;;10.36;65.38
3132;BME280;62090;52.330;9.104;2023-04-28T05:43:33;100751.03;;;10.45;64.61
3132;BME280;62090;52.330;9.104;2023-04-28T05:46:03;100727.97;;;10.39;64.58
3132;BME280;62090;52.330;9.104;2023-04-28T05:48:53;100752.19;;;10.57;64.86
3132;BME280;62090;52.330;9.104;2023-04-28T05:51:23;100737.97;;;10.66;64.52
3132;BME280;62090;52.330;9.104;2023-04-28T05:53:53;100728.06;;;10.78;64.06
3132;BME280;62090;52.330;9.104;2023-04-28T05:56:24;100642.19;;;10.38;63.40
3132;BME280;62090;52.330;9.104;2023-04-28T05:58:58;100741.50;;;11.08;62.99
3132;BME280;62090;52.330;9.104;2023-04-28T06:01:31;100763.00;;;11.19;63.08
3132;BME280;62090;52.330;9.104;2023-04-28T06:04:00;100759.88;;;11.32;63.04
3132;BME280;62090;52.330;9.104;2023-04-28T06:06:31;100763.63;;;11.48;62.72
3132;BME280;62090;52.330;9.104;2023-04-28T06:09:02;100742.16;;;11.38;62.45
3132;BME280;62090;52.330;9.104;2023-04-28T06:11:32;100755.25;;;11.55;62.36
3132;BME280;62090;52.330;9.104;2023-04-28T06:14:05;100738.09;;;11.48;62.43
3132;BME280;62090;52.330;9.104;2023-04-28T06:16:34;100743.91;;;11.41;62.88
3132;BME280;62090;52.330;9.104;2023-04-28T06:19:04;100755.31;;;11.57;62.97
3132;BME280;62090;52.330;9.104;2023-04-28T06:21:34;100730.69;;;11.60;62.74
3132;BME280;62090;52.330;9.104;2023-04-28T06:24:04;100754.88;;;11.76;62.45
3132;BME280;62090;52.330;9.104;2023-04-28T06:26:35;100754.16;;;11.84;63.02
3132;BME280;62090;52.330;9.104;2023-04-28T06:29:10;100708.13;;;11.78;62.46
3132;BME280;62090;52.330;9.104;2023-04-28T06:31:40;100745.34;;;12.12;62.05
3132;BME280;62090;52.330;9.104;2023-04-28T06:34:10;100734.34;;;12.16;61.71
3132;BME280;62090;52.330;9.104;2023-04-28T06:36:40;100722.22;;;12.05;63.05
3132;BME280;62090;52.330;9.104;2023-04-28T06:39:10;100736.38;;;12.34;63.57
3132;BME280;62090;52.330;9.104;2023-04-28T06:41:40;100722.88;;;12.41;62.41
3132;BME280;62090;52.330;9.104;2023-04-28T06:44:13;100710.06;;;12.40;62.44
3132;BME280;62090;52.330;9.104;2023-04-28T06:46:44;100739.31;;;12.58;62.50
3132;BME280;62090;52.330;9.104;2023-04-28T06:49:14;100735.94;;;12.59;61.79
3132;BME280;62090;52.330;9.104;2023-04-28T06:51:44;100663.81;;;12.24;62.38
3132;BME280;62090;52.330;9.104;2023-04-28T06:54:14;100711.97;;;12.53;62.11
3132;BME280;62090;52.330;9.104;2023-04-28T06:56:44;100736.19;;;12.76;61.67
3132;BME280;62090;52.330;9.104;2023-04-28T06:59:17;100722.59;;;12.80;61.05
3132;BME280;62090;52.330;9.104;2023-04-28T07:01:46;100730.53;;;12.97;60.61
3132;BME280;62090;52.330;9.104;2023-04-28T07:04:16;100724.72;;;13.05;59.54
3132;BME280;62090;52.330;9.104;2023-04-28T07:06:47;100717.09;;;13.10;60.20
3132;BME280;62090;52.330;9.104;2023-04-28T07:09:18;100721.56;;;13.22;59.80
3132;BME280;62090;52.330;9.104;2023-04-28T07:11:47;100713.16;;;13.32;59.64
3132;BME280;62090;52.330;9.104;2023-04-28T07:14:20;100706.22;;;13.25;61.67
3132;BME280;62090;52.330;9.104;2023-04-28T07:16:50;100710.47;;;13.21;61.64
3132;BME280;62090;52.330;9.104;2023-04-28T07:19:20;100689.63;;;12.98;62.96
3132;BME280;62090;52.330;9.104;2023-04-28T07:21:49;100710.38;;;13.17;63.18
3132;BME280;62090;52.330;9.104;2023-04-28T07:24:19;100716.41;;;13.20;63.17
3132;BME280;62090;52.330;9.104;2023-04-28T07:26:49;100699.31;;;13.18;62.74
3132;BME280;62090;52.330;9.104;2023-04-28T07:29:22;100702.13;;;13.37;62.04
3132;BME280;62090;52.330;9.104;2023-04-28T07:31:54;100670.38;;;13.23;61.28
3132;BME280;62090;52.330;9.104;2023-04-28T07:34:24;100706.78;;;13.69;60.85
3132;BME280;62090;52.330;9.104;2023-04-28T07:36:55;100710.38;;;13.87;60.59
3132;BME280;62090;52.330;9.104;2023-04-28T07:39:25;100687.09;;;13.66;60.81
3132;BME280;62090;52.330;9.104;2023-04-28T07:41:55;100692.44;;;13.84;60.57
3132;BME280;62090;52.330;9.104;2023-04-28T07:44:28;100697.91;;;14.24;59.61
3132;BME280;62090;52.330;9.104;2023-04-28T07:46:58;100703.38;;;14.62;61.36
3132;BME280;62090;52.330;9.104;2023-04-28T07:49:28;100709.72;;;15.20;59.88
3132;BME280;62090;52.330;9.104;2023-04-28T07:51:58;100709.78;;;15.34;57.53
3132;BME280;62090;52.330;9.104;2023-04-28T07:54:28;100684.00;;;15.12;57.18
3132;BME280;62090;52.330;9.104;2023-04-28T07:56:58;100692.47;;;14.90;57.06
3132;BME280;62090;52.330;9.104;2023-04-28T07:59:35;100693.25;;;14.78;57.12
3132;BME280;62090;52.330;9.104;2023-04-28T08:02:05;100698.41;;;14.86;58.13
3132;BME280;62090;52.330;9.104;2023-04-28T08:04:35;100684.84;;;15.04;57.19
3132;BME280;62090;52.330;9.104;2023-04-28T08:07:05;100682.19;;;14.92;57.10
3132;BME280;62090;52.330;9.104;2023-04-28T08:09:35;100680.59;;;15.06;57.73
3132;BME280;62090;52.330;9.104;2023-04-28T08:12:07;100666.91;;;15.11;57.08
3132;BME280;62090;52.330;9.104;2023-04-28T08:14:39;100682.38;;;15.28;57.95
3132;BME280;62090;52.330;9.104;2023-04-28T08:17:09;100684.16;;;15.43;58.46
3132;BME280;62090;52.330;9.104;2023-04-28T08:19:39;100691.13;;;15.68;57.33
3132;BME280;62090;52.330;9.104;2023-04-28T08:22:12;100687.69;;;15.72;55.82
3132;BME280;62090;52.330;9.104;2023-04-28T08:24:41;100668.81;;;15.53;56.21
3132;BME280;62090;52.330;9.104;2023-04-28T08:27:12;100682.56;;;15.68;56.78
3132;BME280;62090;52.330;9.104;2023-04-28T08:29:44;100678.25;;;15.62;56.57
3132;BME280;62090;52.330;9.104;2023-04-28T08:32:14;100680.88;;;15.79;56.02
3132;BME280;62090;52.330;9.104;2023-04-28T08:34:44;100677.25;;;15.31;57.12
3132;BME280;62090;52.330;9.104;2023-04-28T08:37:14;100660.91;;;15.06;57.54
3132;BME280;62090;52.330;9.104;2023-04-28T08:39:43;100672.84;;;15.00;58.23
3132;BME280;62090;52.330;9.104;2023-04-28T08:42:13;100653.13;;;14.94;58.38
3132;BME280;62090;52.330;9.104;2023-04-28T08:44:48;100614.56;;;14.74;58.07
3132;BME280;62090;52.330;9.104;2023-04-28T08:47:32;100648.91;;;15.05;58.41
3132;BME280;62090;52.330;9.104;2023-04-28T08:50:03;100663.50;;;15.11;58.54
3132;BME280;62090;52.330;9.104;2023-04-28T08:52:34;100628.28;;;14.83;59.61
3132;BME280;62090;52.330;9.104;2023-04-28T08:55:06;100515.94;;;14.24;59.08
3132;BME280;62090;52.330;9.104;2023-04-28T08:57:38;100622.38;;;15.03;58.47
3132;BME280;62090;52.330;9.104;2023-04-28T09:00:12;100612.06;;;14.90;58.14
3132;BME280;62090;52.330;9.104;2023-04-28T09:02:42;100671.22;;;15.18;58.44
3132;BME280;62090;52.330;9.104;2023-04-28T09:05:12;100651.56;;;15.20;58.33
3132;BME280;62090;52.330;9.104;2023-04-28T09:07:45;100628.44;;;15.20;58.20
3132;BME280;62090;52.330;9.104;2023-04-28T09:10:19;100631.91;;;15.30;58.00
3132;BME280;62090;52.330;9.104;2023-04-28T09:12:51;100650.75;;;15.28;57.67
3132;BME280;62090;52.330;9.104;2023-04-28T09:15:28;100620.69;;;15.08;57.44
3132;BME280;62090;52.330;9.104;2023-04-28T09:18:00;100653.22;;;15.09;57.75
3132;BME280;62090;52.330;9.104;2023-04-28T09:20:32;100642.94;;;15.09;58.10
3132;BME280;62090;52.330;9.104;2023-04-28T09:23:13;100605.97;;;14.71;57.99
3132;BME280;62090;52.330;9.104;2023-04-28T09:25:57;100656.50;;;14.79;57.92
3132;BME280;62090;52.330;9.104;2023-04-28T09:28:28;100646.06;;;14.55;58.15
3132;BME280;62090;52.330;9.104;2023-04-28T09:31:03;100675.22;;;14.71;58.06
3132;BME280;62090;52.330;9.104;2023-04-28T09:33:34;100685.50;;;14.71;58.53
3132;BME280;62090;52.330;9.104;2023-04-28T09:36:07;100606.50;;;14.24;58.64
3132;BME280;62090;52.330;9.104;2023-04-28T09:38:42;100647.75;;;14.52;58.21
3132;BME280;62090;52.330;9.104;2023-04-28T09:41:15;100570.44;;;14.02;58.48
3132;BME280;62090;52.330;9.104;2023-04-28T09:43:50;100618.34;;;14.09;58.66
3132;BME280;62090;52.330;9.104;2023-04-28T09:46:30;100589.28;;;14.08;58.87
3132;BME280;62090;52.330;9.104;2023-04-28T09:49:04;100604.78;;;14.23;58.54
3132;BME280;62090;52.330;9.104;2023-04-28T09:51:40;100600.53;;;14.25;59.20
3132;BME280;62090;52.330;9.104;2023-04-28T09:54:15;100653.00;;;14.71;58.85
3132;BME280;62090;52.330;9.104;2023-04-28T09:56:55;100569.81;;;14.30;59.59
3132;BME280;62090;52.330;9.104;2023-04-28T09:59:29;100652.22;;;14.80;59.72
3132;BME280;62090;52.330;9.104;2023-04-28T10:02:04;100438.59;;;13.51;59.58
3132;BME280;62090;52.330;9.104;2023-04-28T10:04:57;100648.81;;;14.86;59.85
3132;BME280;62090;52.330;9.104;2023-04-28T10:07:27;100662.50;;;14.88;60.89
3132;BME280;62090;52.330;9.104;2023-04-28T10:10:01;100623.13;;;14.81;61.49
3132;BME280;62090;52.330;9.104;2023-04-28T10:12:32;100654.91;;;15.09;61.97
3132;BME280;62090;52.330;9.104;2023-04-28T10:15:06;100662.66;;;15.16;62.50
3132;BME280;62090;52.330;9.104;2023-04-28T10:17:40;100654.94;;;15.12;62.36
3132;BME280;62090;52.330;9.104;2023-04-28T10:20:11;100571.63;;;14.45;63.00
3132;BME280;62090;52.330;9.104;2023-04-28T10:22:54;100591.47;;;14.73;64.25
3132;BME280;62090;52.330;9.104;2023-04-28T10:25:30;100618.94;;;14.95;64.71
3132;BME280;62090;52.330;9.104;2023-04-28T10:28:05;100594.16;;;15.00;65.34
3132;BME280;62090;52.330;9.104;2023-04-28T10:30:36;100620.72;;;15.16;66.82
3132;BME280;62090;52.330;9.104;2023-04-28T10:33:24;100595.06;;;15.11;65.64
3132;BME280;62090;52.330;9.104;2023-04-28T10:35:55;100592.53;;;15.34;66.50
3132;BME280;62090;52.330;9.104;2023-04-28T10:38:24;100608.06;;;15.65;65.03
3132;BME280;62090;52.330;9.104;2023-04-28T10:40:54;100588.34;;;15.65;64.80
3132;BME280;62090;52.330;9.104;2023-04-28T10:43:38;100605.50;;;15.93;64.13
3132;BME280;62090;52.330;9.104;2023-04-28T10:46:08;100561.81;;;15.72;63.70
3132;BME280;62090;52.330;9.104;2023-04-28T10:48:54;100596.09;;;16.01;62.59
3132;BME280;62090;52.330;9.104;2023-04-28T10:51:28;100602.06;;;15.93;63.42
3132;BME280;62090;52.330;9.104;2023-04-28T10:54:17;100585.81;;;15.74;63.13
3132;BME280;62090;52.330;9.104;2023-04-28T10:57:18;100598.66;;;15.70;62.98
3132;BME280;62090;52.330;9.104;2023-04-28T10:59:49;100604.59;;;15.55;63.67
3132;BME280;62090;52.330;9.104;2023-04-28T11:02:37;100601.22;;;15.63;63.71
3132;BME280;62090;52.330;9.104;2023-04-28T11:05:17;100586.63;;;15.66;64.89
3132;BME280;62090;52.330;9.104;2023-04-28T11:11:20;100601.22;;;16.23;66.51
3132;BME280;62090;52.330;9.104;2023-04-28T11:13:53;100584.94;;;16.02;65.73
3132;BME280;62090;52.330;9.104;2023-04-28T11:16:24;100602.94;;;15.90;65.67
3132;BME280;62090;52.330;9.104;2023-04-28T11:18:57;100585.78;;;15.71;66.75
3132;BME280;62090;52.330;9.104;2023-04-28T11:21:33;100576.38;;;15.58;66.28
3132;BME280;62090;52.330;9.104;2023-04-28T11:24:08;100601.22;;;15.80;66.58
3132;BME280;62090;52.330;9.104;2023-04-28T11:26:39;100597.75;;;16.51;63.11
3132;BME280;62090;52.330;9.104;2023-04-28T11:29:10;100606.38;;;15.98;63.82
3132;BME280;62090;52.330;9.104;2023-04-28T11:31:48;100590.94;;;15.70;64.96
3132;BME280;62090;52.330;9.104;2023-04-28T11:34:19;100591.78;;;15.61;65.72
3132;BME280;62090;52.330;9.104;2023-04-28T11:36:51;100588.34;;;15.62;67.08
3132;BME280;62090;52.330;9.104;2023-04-28T11:39:25;100594.34;;;15.62;66.43
3132;BME280;62090;52.330;9.104;2023-04-28T11:41:57;100596.06;;;15.57;65.54
3132;BME280;62090;52.330;9.104;2023-04-28T11:44:29;100589.22;;;15.64;65.03
3132;BME280;62090;52.330;9.104;2023-04-28T11:47:00;100572.94;;;15.56;66.55
3132;BME280;62090;52.330;9.104;2023-04-28T11:49:40;100596.94;;;15.73;66.55
3132;BME280;62090;52.330;9.104;2023-04-28T11:52:14;100589.22;;;15.76;66.73
3132;BME280;62090;52.330;9.104;2023-04-28T11:54:43;100573.81;;;15.70;67.31
3132;BME280;62090;52.330;9.104;2023-04-28T11:57:17;100564.41;;;15.74;66.67
3132;BME280;62090;52.330;9.104;2023-04-28T11:59:48;100580.66;;;15.74;66.27
3132;BME280;62090;52.330;9.104;2023-04-28T12:02:24;100575.53;;;15.89;66.33
3132;BME280;62090;52.330;9.104;2023-04-28T12:05:04;100569.53;;;15.87;65.37
3132;BME280;62090;52.330;9.104;2023-04-28T12:07:42;100531.00;;;15.69;65.29
3132;BME280;62090;52.330;9.104;2023-04-28T12:10:13;100539.56;;;15.68;65.59
3132;BME280;62090;52.330;9.104;2023-04-28T12:12:45;100560.13;;;15.89;65.01
3132;BME280;62090;52.330;9.104;2023-04-28T12:15:20;100560.97;;;15.90;65.42
3132;BME280;62090;52.330;9.104;2023-04-28T12:17:51;100555.81;;;15.78;65.39
3132;BME280;62090;52.330;9.104;2023-04-28T12:20:34;100560.94;;;15.97;65.04
3132;BME280;62090;52.330;9.104;2023-04-28T12:23:07;100554.09;;;15.92;65.16
3132;BME280;62090;52.330;9.104;2023-04-28T12:25:44;100537.81;;;16.03;64.86
3132;BME280;62090;52.330;9.104;2023-04-28T12:28:14;100526.69;;;15.98;64.92
3132;BME280;62090;52.330;9.104;2023-04-28T12:30:44;100512.09;;;16.10;65.03
3132;BME280;62090;52.330;9.104;2023-04-28T12:33:21;100518.91;;;16.32;64.77
3132;BME280;62090;52.330;9.104;2023-04-28T12:35:52;100544.56;;;16.50;64.68
3132;BME280;62090;52.330;9.104;2023-04-28T12:38:26;100506.88;;;16.40;64.90
3132;BME280;62090;52.330;9.104;2023-04-28T12:40:56;100502.56;;;16.60;65.36
3132;BME280;62090;52.330;9.104;2023-04-28T12:43:26;100518.78;;;16.80;64.45
3132;BME280;62090;52.330;9.104;2023-04-28T12:45:56;100503.38;;;16.76;63.68
3132;BME280;62090;52.330;9.104;2023-04-28T12:48:26;100523.94;;;16.71;63.39
3132;BME280;62090;52.330;9.104;2023-04-28T12:50:57;100529.94;;;16.79;64.09
3132;BME280;62090;52.330;9.104;2023-04-28T12:53:30;100521.25;;;17.00;64.52
3132;BME280;62090;52.330;9.104;2023-04-28T12:55:59;100506.69;;;16.93;64.00
3132;BME280;62090;52.330;9.104;2023-04-28T12:58:30;100521.16;;;17.14;63.28
3132;BME280;62090;52.330;9.104;2023-04-28T13:00:59;100505.84;;;16.96;63.52
3132;BME280;62090;52.330;9.104;2023-04-28T13:03:30;100501.59;;;16.82;63.59
3132;BME280;62090;52.330;9.104;2023-04-28T13:06:01;100513.53;;;16.99;63.08
3132;BME280;62090;52.330;9.104;2023-04-28T13:08:34;100525.41;;;17.19;63.73
3132;BME280;62090;52.330;9.104;2023-04-28T13:11:04;100510.75;;;17.34;63.83
3132;BME280;62090;52.330;9.104;2023-04-28T13:13:48;100524.31;;;17.58;63.62
3132;BME280;62090;52.330;9.104;2023-04-28T13:16:19;100482.44;;;17.32;62.54
3132;BME280;62090;52.330;9.104;2023-04-28T13:18:50;100507.06;;;17.69;63.38
3132;BME280;62090;52.330;9.104;2023-04-28T13:21:20;100514.75;;;17.72;63.07
3132;BME280;62090;52.330;9.104;2023-04-28T13:23:53;100491.47;;;17.83;62.84
3132;BME280;62090;52.330;9.104;2023-04-28T13:26:23;100487.88;;;18.02;63.35
3132;BME280;62090;52.330;9.104;2023-04-28T13:28:53;100492.13;;;18.05;63.21
3132;BME280;62090;52.330;9.104;2023-04-28T13:31:23;100486.25;;;17.91;62.13
3132;BME280;62090;52.330;9.104;2023-04-28T13:33:53;100485.19;;;18.13;62.50
3132;BME280;62090;52.330;9.104;2023-04-28T13:36:22;100497.81;;;18.36;62.29